sensor_id;sensor_type;location;lat;lon;timestamp;pressure;altitude;pressure_sealevel;temperature;humidity
82512;BME280;72152;65.012;25.464;2024-01-06T00:02:07;101871.35;;;-22.77;54.41
82512;BME280;72152;65.012;25.464;2024-01-06T00:05:13;101875.23;;;-22.77;54.46
82512;BME280;72152;65.012;25.464;2024-01-06T00:08:20;101879.79;;;-22.80;54.46
82512;BME280;72152;65.012;25.464;2024-01-06T00:11:29;101881.02;;;-22.80;54.76
82512;BME280;72152;65.012;25.464;2024-01-06T00:14:31;101881.73;;;-22.78;54.63
82512;BME280;72152;65.012;25.464;2024-01-06T00:17:33;101880.69;;;-22.78;54.39
82512;BME280;72152;65.012;25.464;2024-01-06T00:20:29;101887.25;;;-22.80;54.55
82512;BME280;72152;65.012;25.464;2024-01-06T00:23:27;101886.27;;;-22.83;54.45
82512;BME280;72152;65.012;25.464;2024-01-06T00:26:33;101893.67;;;-22.83;54.59
82512;BME280;72152;65.012;25.464;2024-01-06T00:29:28;101905.42;;;-22.80;54.92
82512;BME280;72152;65.012;25.464;2024-01-06T00:32:36;101906.81;;;-22.76;55.00
82512;BME280;72152;65.012;25.464;2024-01-06T00:35:37;101906.63;;;-22.68;54.94
82512;BME280;72152;65.012;25.464;2024-01-06T00:38:35;101914.70;;;-22.66;54.81
82512;BME280;72152;65.012;25.464;2024-01-06T00:41:37;101924.75;;;-22.66;54.72
82512;BME280;72152;65.012;25.464;2024-01-06T00:44:47;101937.50;;;-22.69;54.52
82512;BME280;72152;65.012;25.464;2024-01-06T00:47:53;101936.58;;;-22.75;54.81
82512;BME280;72152;65.012;25.464;2024-01-06T00:50:59;101940.55;;;-22.77;54.65
82512;BME280;72152;65.012;25.464;2024-01-06T00:54:02;101946.23;;;-22.78;54.65
82512;BME280;72152;65.012;25.464;2024-01-06T00:57:16;101942.02;;;-22.77;54.82
82512;BME280;72152;65.012;25.464;2024-01-06T01:00:31;101944.79;;;-22.73;54.94
82512;BME280;72152;65.012;25.464;2024-01-06T01:03:32;101955.11;;;-22.64;54.96
82512;BME280;72152;65.012;25.464;2024-01-06T01:06:35;101950.70;;;-22.55;55.11
82512;BME280;72152;65.012;25.464;2024-01-06T01:09:41;101953.34;;;-22.48;54.63
82512;BME280;72152;65.012;25.464;2024-01-06T01:12:45;101955.27;;;-22.43;54.68
82512;BME280;72152;65.012;25.464;2024-01-06T01:15:45;101956.64;;;-22.37;54.80
82512;BME280;72152;65.012;25.464;2024-01-06T01:18:40;101963.09;;;-22.36;54.52
82512;BME280;72152;65.012;25.464;2024-01-06T01:22:02;101957.59;;;-22.37;54.43
82512;BME280;72152;65.012;25.464;2024-01-06T01:25:14;101971.38;;;-22.37;54.26
82512;BME280;72152;65.012;25.464;2024-01-06T01:28:21;101981.97;;;-22.36;54.38
82512;BME280;72152;65.012;25.464;2024-01-06T01:31:23;101979.80;;;-22.33;54.54
82512;BME280;72152;65.012;25.464;2024-01-06T01:34:29;101987.56;;;-22.29;54.87
82512;BME280;72152;65.012;25.464;2024-01-06T01:37:37;101987.35;;;-22.24;54.22
82512;BME280;72152;65.012;25.464;2024-01-06T01:43:59;101992.03;;;-22.17;54.65
82512;BME280;72152;65.012;25.464;2024-01-06T01:47:00;101997.27;;;-22.12;54.79
82512;BME280;72152;65.012;25.464;2024-01-06T01:50:07;102003.50;;;-22.04;54.67
82512;BME280;72152;65.012;25.464;2024-01-06T01:56:25;102009.46;;;-21.85;54.95
82512;BME280;72152;65.012;25.464;2024-01-06T01:59:29;102019.42;;;-21.80;54.75
82512;BME280;72152;65.012;25.464;2024-01-06T02:02:36;102015.04;;;-21.78;54.53
82512;BME280;72152;65.012;25.464;2024-01-06T02:05:44;102013.86;;;-21.77;54.56
82512;BME280;72152;65.012;25.464;2024-01-06T02:08:45;102021.70;;;-21.79;54.35
82512;BME280;72152;65.012;25.464;2024-01-06T02:11:51;102026.98;;;-21.81;54.50
82512;BME280;72152;65.012;25.464;2024-01-06T02:14:54;102031.91;;;-21.82;54.53
82512;BME280;72152;65.012;25.464;2024-01-06T02:18:02;102033.94;;;-21.83;54.49
82512;BME280;72152;65.012;25.464;2024-01-06T02:21:10;102029.28;;;-21.82;54.40
82512;BME280;72152;65.012;25.464;2024-01-06T02:24:09;102032.10;;;-21.76;55.35
82512;BME280;72152;65.012;25.464;2024-01-06T02:27:11;102033.14;;;-21.75;54.83
82512;BME280;72152;65.012;25.464;2024-01-06T02:30:22;102026.85;;;-21.73;54.97
82512;BME280;72152;65.012;25.464;2024-01-06T02:33:29;102029.60;;;-21.69;54.83
82512;BME280;72152;65.012;25.464;2024-01-06T02:36:39;102023.80;;;-21.65;54.46
82512;BME280;72152;65.012;25.464;2024-01-06T02:39:39;102013.88;;;-21.62;54.23
82512;BME280;72152;65.012;25.464;2024-01-06T02:42:41;102016.58;;;-21.63;54.20
82512;BME280;72152;65.012;25.464;2024-01-06T02:45:49;102015.46;;;-21.66;54.34
82512;BME280;72152;65.012;25.464;2024-01-06T02:48:55;102009.48;;;-21.69;54.39
82512;BME280;72152;65.012;25.464;2024-01-06T02:51:57;102006.61;;;-21.70;54.45
82512;BME280;72152;65.012;25.464;2024-01-06T02:55:02;102005.55;;;-21.73;54.35
82512;BME280;72152;65.012;25.464;2024-01-06T02:58:08;102014.17;;;-21.77;54.35
82512;BME280;72152;65.012;25.464;2024-01-06T03:01:14;102018.95;;;-21.82;54.71
82512;BME280;72152;65.012;25.464;2024-01-06T03:04:15;102022.08;;;-21.82;54.51
82512;BME280;72152;65.012;25.464;2024-01-06T03:07:16;102015.37;;;-21.78;54.82
82512;BME280;72152;65.012;25.464;2024-01-06T03:10:19;102017.23;;;-21.73;54.91
82512;BME280;72152;65.012;25.464;2024-01-06T03:13:28;102020.67;;;-21.70;55.05
82512;BME280;72152;65.012;25.464;2024-01-06T03:16:34;102024.20;;;-21.65;54.71
82512;BME280;72152;65.012;25.464;2024-01-06T03:19:40;102017.59;;;-21.60;55.29
82512;BME280;72152;65.012;25.464;2024-01-06T03:22:47;102013.73;;;-21.55;55.17
82512;BME280;72152;65.012;25.464;2024-01-06T03:25:49;102006.84;;;-21.51;55.16
82512;BME280;72152;65.012;25.464;2024-01-06T03:28:55;102013.42;;;-21.48;55.10
82512;BME280;72152;65.012;25.464;2024-01-06T03:32:00;102028.27;;;-21.45;55.21
82512;BME280;72152;65.012;25.464;2024-01-06T03:35:01;102028.89;;;-21.39;55.31
82512;BME280;72152;65.012;25.464;2024-01-06T03:38:03;102025.77;;;-21.32;55.57
82512;BME280;72152;65.012;25.464;2024-01-06T03:41:11;102024.10;;;-21.24;55.43
82512;BME280;72152;65.012;25.464;2024-01-06T03:44:27;102029.55;;;-21.18;55.86
82512;BME280;72152;65.012;25.464;2024-01-06T03:47:34;102039.94;;;-21.13;55.55
82512;BME280;72152;65.012;25.464;2024-01-06T03:50:43;102040.21;;;-21.09;55.73
82512;BME280;72152;65.012;25.464;2024-01-06T03:53:50;102044.11;;;-21.01;55.40
82512;BME280;72152;65.012;25.464;2024-01-06T03:56:56;102040.23;;;-20.94;55.36
82512;BME280;72152;65.012;25.464;2024-01-06T04:00:00;102051.98;;;-20.87;55.37
82512;BME280;72152;65.012;25.464;2024-01-06T04:03:06;102056.03;;;-20.81;55.39
82512;BME280;72152;65.012;25.464;2024-01-06T04:06:16;102054.02;;;-20.77;55.38
82512;BME280;72152;65.012;25.464;2024-01-06T04:09:22;102071.63;;;-20.73;55.11
82512;BME280;72152;65.012;25.464;2024-01-06T04:12:28;102067.39;;;-20.73;55.08
82512;BME280;72152;65.012;25.464;2024-01-06T04:15:25;102060.44;;;-20.71;55.12
82512;BME280;72152;65.012;25.464;2024-01-06T04:18:24;102072.96;;;-20.70;54.84
82512;BME280;72152;65.012;25.464;2024-01-06T04:21:31;102077.36;;;-20.72;54.94
82512;BME280;72152;65.012;25.464;2024-01-06T04:24:40;102077.75;;;-20.73;54.72
82512;BME280;72152;65.012;25.464;2024-01-06T04:27:42;102078.69;;;-20.69;55.19
82512;BME280;72152;65.012;25.464;2024-01-06T04:30:45;102082.61;;;-20.65;54.87
82512;BME280;72152;65.012;25.464;2024-01-06T04:33:54;102084.85;;;-20.64;54.75
82512;BME280;72152;65.012;25.464;2024-01-06T04:37:00;102083.66;;;-20.61;54.93
82512;BME280;72152;65.012;25.464;2024-01-06T04:40:05;102083.89;;;-20.60;54.63
82512;BME280;72152;65.012;25.464;2024-01-06T04:43:13;102097.69;;;-20.63;54.90
82512;BME280;72152;65.012;25.464;2024-01-06T04:46:19;102105.37;;;-20.73;54.93
82512;BME280;72152;65.012;25.464;2024-01-06T04:49:22;102089.63;;;-20.80;54.80
82512;BME280;72152;65.012;25.464;2024-01-06T04:52:27;102075.10;;;-20.87;54.90
82512;BME280;72152;65.012;25.464;2024-01-06T04:55:29;102072.65;;;-21.03;55.04
82512;BME280;72152;65.012;25.464;2024-01-06T04:58:33;102083.42;;;-21.13;55.04
82512;BME280;72152;65.012;25.464;2024-01-06T05:01:40;102094.02;;;-21.16;55.06
82512;BME280;72152;65.012;25.464;2024-01-06T05:04:43;102089.84;;;-21.17;55.33
82512;BME280;72152;65.012;25.464;2024-01-06T05:07:46;102100.80;;;-21.15;55.38
82512;BME280;72152;65.012;25.464;2024-01-06T05:10:59;102109.80;;;-21.13;55.13
82512;BME280;72152;65.012;25.464;2024-01-06T05:14:04;102113.42;;;-21.11;55.25
82512;BME280;72152;65.012;25.464;2024-01-06T05:17:11;102121.58;;;-21.10;55.45
82512;BME280;72152;65.012;25.464;2024-01-06T05:20:19;102121.75;;;-21.08;55.36
82512;BME280;72152;65.012;25.464;2024-01-06T05:23:25;102122.11;;;-21.03;55.80
82512;BME280;72152;65.012;25.464;2024-01-06T05:26:32;102134.30;;;-21.01;55.42
82512;BME280;72152;65.012;25.464;2024-01-06T05:29:34;102121.08;;;-21.06;55.32
82512;BME280;72152;65.012;25.464;2024-01-06T05:32:41;102121.08;;;-21.04;55.72
82512;BME280;72152;65.012;25.464;2024-01-06T05:35:43;102119.50;;;-21.01;55.04
82512;BME280;72152;65.012;25.464;2024-01-06T05:38:50;102117.99;;;-20.97;55.43
82512;BME280;72152;65.012;25.464;2024-01-06T05:41:51;102128.46;;;-21.00;55.52
82512;BME280;72152;65.012;25.464;2024-01-06T05:44:49;102137.52;;;-21.03;55.34
82512;BME280;72152;65.012;25.464;2024-01-06T05:47:50;102120.73;;;-21.07;55.20
82512;BME280;72152;65.012;25.464;2024-01-06T05:50:55;102130.66;;;-21.12;54.94
82512;BME280;72152;65.012;25.464;2024-01-06T05:54:01;102148.61;;;-21.22;54.96
82512;BME280;72152;65.012;25.464;2024-01-06T05:57:04;102141.38;;;-21.28;55.42
82512;BME280;72152;65.012;25.464;2024-01-06T06:00:20;102147.30;;;-21.27;55.13
82512;BME280;72152;65.012;25.464;2024-01-06T06:03:28;102147.73;;;-21.25;55.29
82512;BME280;72152;65.012;25.464;2024-01-06T06:06:29;102146.17;;;-21.24;55.28
82512;BME280;72152;65.012;25.464;2024-01-06T06:09:36;102149.67;;;-21.23;55.19
82512;BME280;72152;65.012;25.464;2024-01-06T06:12:38;102159.52;;;-21.22;55.34
82512;BME280;72152;65.012;25.464;2024-01-06T06:15:43;102171.39;;;-21.20;55.12
82512;BME280;72152;65.012;25.464;2024-01-06T06:18:51;102173.88;;;-21.24;55.25
82512;BME280;72152;65.012;25.464;2024-01-06T06:21:54;102179.13;;;-21.25;55.26
82512;BME280;72152;65.012;25.464;2024-01-06T06:24:59;102190.94;;;-21.21;55.35
82512;BME280;72152;65.012;25.464;2024-01-06T06:28:00;102184.19;;;-21.21;55.15
82512;BME280;72152;65.012;25.464;2024-01-06T06:30:59;102194.98;;;-21.19;55.13
82512;BME280;72152;65.012;25.464;2024-01-06T06:34:06;102199.73;;;-21.21;55.14
82512;BME280;72152;65.012;25.464;2024-01-06T06:37:11;102203.38;;;-21.22;55.28
82512;BME280;72152;65.012;25.464;2024-01-06T06:40:22;102198.83;;;-21.28;54.44
82512;BME280;72152;65.012;25.464;2024-01-06T06:43:23;102210.63;;;-21.29;54.97
82512;BME280;72152;65.012;25.464;2024-01-06T06:46:20;102215.08;;;-21.33;54.90
82512;BME280;72152;65.012;25.464;2024-01-06T06:49:27;102205.30;;;-21.36;54.88
82512;BME280;72152;65.012;25.464;2024-01-06T06:52:33;102209.38;;;-21.38;55.27
82512;BME280;72152;65.012;25.464;2024-01-06T06:55:48;102216.24;;;-21.43;55.19
82512;BME280;72152;65.012;25.464;2024-01-06T06:58:49;102214.31;;;-21.48;55.05
82512;BME280;72152;65.012;25.464;2024-01-06T07:01:53;102218.95;;;-21.48;54.82
82512;BME280;72152;65.012;25.464;2024-01-06T07:04:59;102227.96;;;-21.46;55.06
82512;BME280;72152;65.012;25.464;2024-01-06T07:08:09;102230.09;;;-21.44;54.68
82512;BME280;72152;65.012;25.464;2024-01-06T07:11:09;102236.27;;;-21.42;54.76
82512;BME280;72152;65.012;25.464;2024-01-06T07:14:14;102233.20;;;-21.40;54.79
82512;BME280;72152;65.012;25.464;2024-01-06T07:17:12;102232.90;;;-21.41;55.02
82512;BME280;72152;65.012;25.464;2024-01-06T07:20:27;102243.06;;;-21.42;54.77
82512;BME280;72152;65.012;25.464;2024-01-06T07:23:34;102247.02;;;-21.46;54.88
82512;BME280;72152;65.012;25.464;2024-01-06T07:26:35;102252.66;;;-21.50;54.91
82512;BME280;72152;65.012;25.464;2024-01-06T07:29:38;102250.70;;;-21.48;54.98
82512;BME280;72152;65.012;25.464;2024-01-06T07:32:45;102258.58;;;-21.46;55.28
82512;BME280;72152;65.012;25.464;2024-01-06T07:35:43;102268.00;;;-21.49;55.07
82512;BME280;72152;65.012;25.464;2024-01-06T07:38:49;102266.28;;;-21.48;54.96
82512;BME280;72152;65.012;25.464;2024-01-06T07:41:55;102264.86;;;-21.45;54.75
82512;BME280;72152;65.012;25.464;2024-01-06T07:45:00;102272.65;;;-21.46;54.59
82512;BME280;72152;65.012;25.464;2024-01-06T07:48:07;102280.25;;;-21.44;54.27
82512;BME280;72152;65.012;25.464;2024-01-06T07:51:07;102280.52;;;-21.45;53.88
82512;BME280;72152;65.012;25.464;2024-01-06T07:54:13;102283.48;;;-21.47;54.63
82512;BME280;72152;65.012;25.464;2024-01-06T07:57:17;102283.48;;;-21.46;54.76
82512;BME280;72152;65.012;25.464;2024-01-06T08:00:32;102285.65;;;-21.41;54.27
82512;BME280;72152;65.012;25.464;2024-01-06T08:03:30;102292.09;;;-21.43;54.43
82512;BME280;72152;65.012;25.464;2024-01-06T08:06:32;102290.55;;;-21.47;54.13
82512;BME280;72152;65.012;25.464;2024-01-06T08:09:30;102285.83;;;-21.52;54.26
82512;BME280;72152;65.012;25.464;2024-01-06T08:12:37;102293.38;;;-21.58;54.25
82512;BME280;72152;65.012;25.464;2024-01-06T08:15:42;102290.44;;;-21.62;53.95
82512;BME280;72152;65.012;25.464;2024-01-06T08:18:43;102287.11;;;-21.63;54.22
82512;BME280;72152;65.012;25.464;2024-01-06T08:21:52;102284.44;;;-21.68;54.30
82512;BME280;72152;65.012;25.464;2024-01-06T08:24:48;102289.19;;;-21.73;54.02
82512;BME280;72152;65.012;25.464;2024-01-06T08:27:56;102305.68;;;-21.77;54.05
82512;BME280;72152;65.012;25.464;2024-01-06T08:30:54;102308.24;;;-21.79;53.83
82512;BME280;72152;65.012;25.464;2024-01-06T08:33:56;102312.20;;;-21.81;54.06
82512;BME280;72152;65.012;25.464;2024-01-06T08:37:02;102310.79;;;-21.81;53.77
82512;BME280;72152;65.012;25.464;2024-01-06T08:46:41;102312.15;;;-21.77;54.07
82512;BME280;72152;65.012;25.464;2024-01-06T08:49:44;102316.88;;;-21.75;54.29
82512;BME280;72152;65.012;25.464;2024-01-06T08:52:49;102307.73;;;-21.75;54.22
82512;BME280;72152;65.012;25.464;2024-01-06T08:55:56;102306.65;;;-21.77;54.78
82512;BME280;72152;65.012;25.464;2024-01-06T08:59:03;102304.17;;;-21.75;54.50
82512;BME280;72152;65.012;25.464;2024-01-06T09:01:57;102309.55;;;-21.76;54.87
82512;BME280;72152;65.012;25.464;2024-01-06T09:05:00;102315.93;;;-21.74;54.62
82512;BME280;72152;65.012;25.464;2024-01-06T09:08:03;102320.07;;;-21.71;55.05
82512;BME280;72152;65.012;25.464;2024-01-06T09:11:11;102323.46;;;-21.66;54.78
82512;BME280;72152;65.012;25.464;2024-01-06T09:14:18;102322.20;;;-21.63;54.68
82512;BME280;72152;65.012;25.464;2024-01-06T09:17:15;102325.27;;;-21.61;55.02
82512;BME280;72152;65.012;25.464;2024-01-06T09:20:24;102323.73;;;-21.63;54.52
82512;BME280;72152;65.012;25.464;2024-01-06T09:23:30;102330.80;;;-21.65;54.62
82512;BME280;72152;65.012;25.464;2024-01-06T09:26:37;102320.98;;;-21.61;55.02
82512;BME280;72152;65.012;25.464;2024-01-06T09:29:43;102336.48;;;-21.61;54.32
82512;BME280;72152;65.012;25.464;2024-01-06T09:32:52;102342.62;;;-21.57;55.20
82512;BME280;72152;65.012;25.464;2024-01-06T09:35:55;102339.03;;;-21.50;55.34
82512;BME280;72152;65.012;25.464;2024-01-06T09:39:01;102332.38;;;-21.48;54.90
82512;BME280;72152;65.012;25.464;2024-01-06T09:42:02;102342.00;;;-21.50;55.12
82512;BME280;72152;65.012;25.464;2024-01-06T09:45:07;102365.13;;;-21.48;55.00
82512;BME280;72152;65.012;25.464;2024-01-06T09:48:18;102366.71;;;-21.45;54.60
82512;BME280;72152;65.012;25.464;2024-01-06T09:51:17;102360.23;;;-21.41;54.85
82512;BME280;72152;65.012;25.464;2024-01-06T09:54:32;102368.27;;;-21.35;55.17
82512;BME280;72152;65.012;25.464;2024-01-06T09:57:39;102373.05;;;-21.33;54.94
82512;BME280;72152;65.012;25.464;2024-01-06T10:00:45;102363.06;;;-21.32;55.23
82512;BME280;72152;65.012;25.464;2024-01-06T10:03:53;102364.13;;;-21.26;54.96
82512;BME280;72152;65.012;25.464;2024-01-06T10:06:59;102369.98;;;-21.18;55.13
82512;BME280;72152;65.012;25.464;2024-01-06T10:09:55;102372.05;;;-21.13;54.87
82512;BME280;72152;65.012;25.464;2024-01-06T10:12:57;102375.77;;;-21.07;55.02
82512;BME280;72152;65.012;25.464;2024-01-06T10:15:55;102376.90;;;-21.04;54.88
82512;BME280;72152;65.012;25.464;2024-01-06T10:18:51;102377.91;;;-20.99;54.97
82512;BME280;72152;65.012;25.464;2024-01-06T10:21:55;102377.29;;;-20.90;54.97
82512;BME280;72152;65.012;25.464;2024-01-06T10:25:00;102374.69;;;-20.81;54.93
82512;BME280;72152;65.012;25.464;2024-01-06T10:28:07;102382.15;;;-20.79;54.81
82512;BME280;72152;65.012;25.464;2024-01-06T10:31:18;102382.58;;;-20.81;54.26
82512;BME280;72152;65.012;25.464;2024-01-06T10:34:18;102375.42;;;-20.84;54.40
82512;BME280;72152;65.012;25.464;2024-01-06T10:37:13;102380.06;;;-20.88;54.25
82512;BME280;72152;65.012;25.464;2024-01-06T10:40:18;102378.73;;;-20.99;53.83
82512;BME280;72152;65.012;25.464;2024-01-06T10:43:16;102383.05;;;-21.06;54.18
82512;BME280;72152;65.012;25.464;2024-01-06T10:46:25;102393.92;;;-21.12;54.17
82512;BME280;72152;65.012;25.464;2024-01-06T10:49:31;102393.19;;;-21.12;53.86
82512;BME280;72152;65.012;25.464;2024-01-06T10:52:34;102404.71;;;-21.08;53.72
82512;BME280;72152;65.012;25.464;2024-01-06T10:55:42;102407.50;;;-21.11;53.92
82512;BME280;72152;65.012;25.464;2024-01-06T10:58:46;102407.77;;;-21.22;53.55
82512;BME280;72152;65.012;25.464;2024-01-06T11:01:45;102414.48;;;-21.26;53.75
82512;BME280;72152;65.012;25.464;2024-01-06T11:04:53;102410.11;;;-21.29;54.09
82512;BME280;72152;65.012;25.464;2024-01-06T11:07:59;102411.13;;;-21.28;54.43
82512;BME280;72152;65.012;25.464;2024-01-06T11:11:03;102414.31;;;-21.29;54.78
82512;BME280;72152;65.012;25.464;2024-01-06T11:14:19;102409.81;;;-21.33;54.37
82512;BME280;72152;65.012;25.464;2024-01-06T11:17:19;102414.25;;;-21.39;54.09
82512;BME280;72152;65.012;25.464;2024-01-06T11:20:43;102419.69;;;-21.43;54.43
82512;BME280;72152;65.012;25.464;2024-01-06T11:24:24;102422.65;;;-21.44;54.57
82512;BME280;72152;65.012;25.464;2024-01-06T11:27:25;102424.80;;;-21.47;53.86
82512;BME280;72152;65.012;25.464;2024-01-06T11:30:29;102430.13;;;-21.48;53.79
82512;BME280;72152;65.012;25.464;2024-01-06T11:33:33;102428.21;;;-21.46;53.82
82512;BME280;72152;65.012;25.464;2024-01-06T11:36:34;102427.16;;;-21.42;53.99
82512;BME280;72152;65.012;25.464;2024-01-06T11:39:49;102422.50;;;-21.39;53.88
82512;BME280;72152;65.012;25.464;2024-01-06T11:52:02;102419.52;;;-21.31;53.87
82512;BME280;72152;65.012;25.464;2024-01-06T11:55:09;102421.42;;;-21.31;54.05
82512;BME280;72152;65.012;25.464;2024-01-06T11:58:19;102423.31;;;-21.34;54.23
82512;BME280;72152;65.012;25.464;2024-01-06T12:01:28;102427.32;;;-21.37;53.97
82512;BME280;72152;65.012;25.464;2024-01-06T12:04:45;102435.02;;;-21.40;54.10
82512;BME280;72152;65.012;25.464;2024-01-06T12:08:00;102445.73;;;-21.42;53.91
82512;BME280;72152;65.012;25.464;2024-01-06T12:11:16;102446.07;;;-21.43;54.03
82512;BME280;72152;65.012;25.464;2024-01-06T12:14:25;102453.86;;;-21.48;53.81
82512;BME280;72152;65.012;25.464;2024-01-06T12:17:39;102462.02;;;-21.49;54.18
82512;BME280;72152;65.012;25.464;2024-01-06T12:20:50;102462.52;;;-21.51;54.04
82512;BME280;72152;65.012;25.464;2024-01-06T12:23:56;102462.57;;;-21.49;54.11
82512;BME280;72152;65.012;25.464;2024-01-06T12:27:16;102467.94;;;-21.45;53.88
82512;BME280;72152;65.012;25.464;2024-01-06T12:30:20;102468.65;;;-21.41;54.22
82512;BME280;72152;65.012;25.464;2024-01-06T12:33:19;102467.38;;;-21.39;54.34
82512;BME280;72152;65.012;25.464;2024-01-06T12:36:24;102476.48;;;-21.42;53.76
82512;BME280;72152;65.012;25.464;2024-01-06T12:39:41;102475.27;;;-21.47;53.87
82512;BME280;72152;65.012;25.464;2024-01-06T12:42:43;102475.04;;;-21.50;54.09
82512;BME280;72152;65.012;25.464;2024-01-06T12:45:49;102477.96;;;-21.51;54.05
82512;BME280;72152;65.012;25.464;2024-01-06T12:48:58;102473.77;;;-21.52;54.24
82512;BME280;72152;65.012;25.464;2024-01-06T12:52:02;102476.29;;;-21.56;54.26
82512;BME280;72152;65.012;25.464;2024-01-06T12:55:08;102475.30;;;-21.59;53.92
82512;BME280;72152;65.012;25.464;2024-01-06T12:58:14;102476.29;;;-21.61;54.23
82512;BME280;72152;65.012;25.464;2024-01-06T13:01:24;102481.53;;;-21.59;54.15
82512;BME280;72152;65.012;25.464;2024-01-06T13:04:29;102484.73;;;-21.59;54.21
82512;BME280;72152;65.012;25.464;2024-01-06T13:07:34;102488.36;;;-21.62;53.83
82512;BME280;72152;65.012;25.464;2024-01-06T13:10:37;102488.91;;;-21.59;54.51
82512;BME280;72152;65.012;25.464;2024-01-06T13:13:37;102497.16;;;-21.59;54.21
82512;BME280;72152;65.012;25.464;2024-01-06T13:16:51;102490.05;;;-21.58;54.67
82512;BME280;72152;65.012;25.464;2024-01-06T13:19:56;102492.73;;;-21.61;54.40
82512;BME280;72152;65.012;25.464;2024-01-06T13:23:06;102496.52;;;-21.63;53.85
82512;BME280;72152;65.012;25.464;2024-01-06T13:26:15;102494.18;;;-21.64;53.67
82512;BME280;72152;65.012;25.464;2024-01-06T13:29:19;102499.39;;;-21.66;54.13
82512;BME280;72152;65.012;25.464;2024-01-06T13:32:25;102498.94;;;-21.67;54.34
82512;BME280;72152;65.012;25.464;2024-01-06T13:35:35;102494.56;;;-21.67;54.26
82512;BME280;72152;65.012;25.464;2024-01-06T13:38:42;102500.98;;;-21.67;53.77
82512;BME280;72152;65.012;25.464;2024-01-06T13:42:02;102509.77;;;-21.65;53.88
82512;BME280;72152;65.012;25.464;2024-01-06T13:45:06;102509.45;;;-21.64;54.17
82512;BME280;72152;65.012;25.464;2024-01-06T13:48:17;102516.37;;;-21.62;53.74
82512;BME280;72152;65.012;25.464;2024-01-06T13:51:26;102510.05;;;-21.59;54.11
82512;BME280;72152;65.012;25.464;2024-01-06T13:54:33;102511.05;;;-21.60;54.38
82512;BME280;72152;65.012;25.464;2024-01-06T13:57:41;102510.02;;;-21.61;54.07
82512;BME280;72152;65.012;25.464;2024-01-06T14:00:49;102514.45;;;-21.59;54.15
82512;BME280;72152;65.012;25.464;2024-01-06T14:03:56;102512.73;;;-21.57;54.14
82512;BME280;72152;65.012;25.464;2024-01-06T14:07:02;102519.91;;;-21.54;54.13
82512;BME280;72152;65.012;25.464;2024-01-06T14:10:14;102524.65;;;-21.50;54.06
82512;BME280;72152;65.012;25.464;2024-01-06T14:13:19;102519.95;;;-21.51;54.31
82512;BME280;72152;65.012;25.464;2024-01-06T14:16:34;102522.19;;;-21.55;53.99
82512;BME280;72152;65.012;25.464;2024-01-06T14:19:39;102518.83;;;-21.55;54.24
82512;BME280;72152;65.012;25.464;2024-01-06T14:22:55;102523.77;;;-21.54;54.36
82512;BME280;72152;65.012;25.464;2024-01-06T14:26:00;102526.97;;;-21.54;54.19
82512;BME280;72152;65.012;25.464;2024-01-06T14:29:07;102528.12;;;-21.54;54.39
82512;BME280;72152;65.012;25.464;2024-01-06T14:32:17;102527.16;;;-21.57;54.48
82512;BME280;72152;65.012;25.464;2024-01-06T14:35:24;102537.59;;;-21.55;54.59
82512;BME280;72152;65.012;25.464;2024-01-06T14:38:31;102545.70;;;-21.55;54.79
82512;BME280;72152;65.012;25.464;2024-01-06T14:41:36;102546.16;;;-21.56;54.20
82512;BME280;72152;65.012;25.464;2024-01-06T14:44:39;102550.16;;;-21.54;54.44
82512;BME280;72152;65.012;25.464;2024-01-06T14:47:39;102548.42;;;-21.50;54.57
82512;BME280;72152;65.012;25.464;2024-01-06T14:50:45;102552.90;;;-21.50;54.44
82512;BME280;72152;65.012;25.464;2024-01-06T14:53:49;102555.08;;;-21.55;53.98
82512;BME280;72152;65.012;25.464;2024-01-06T14:56:56;102556.05;;;-21.57;54.01
82512;BME280;72152;65.012;25.464;2024-01-06T14:59:56;102562.33;;;-21.56;54.37
82512;BME280;72152;65.012;25.464;2024-01-06T15:03:05;102569.20;;;-21.53;54.06
82512;BME280;72152;65.012;25.464;2024-01-06T15:06:14;102572.06;;;-21.53;54.09
82512;BME280;72152;65.012;25.464;2024-01-06T15:09:17;102576.13;;;-21.54;54.61
82512;BME280;72152;65.012;25.464;2024-01-06T15:12:26;102584.00;;;-21.57;54.43
82512;BME280;72152;65.012;25.464;2024-01-06T15:15:26;102576.82;;;-21.59;54.28
82512;BME280;72152;65.012;25.464;2024-01-06T15:18:27;102572.61;;;-21.58;53.96
82512;BME280;72152;65.012;25.464;2024-01-06T15:21:35;102572.70;;;-21.56;54.26
82512;BME280;72152;65.012;25.464;2024-01-06T15:24:46;102575.03;;;-21.58;54.32
82512;BME280;72152;65.012;25.464;2024-01-06T15:27:54;102573.92;;;-21.60;53.77
82512;BME280;72152;65.012;25.464;2024-01-06T15:30:58;102571.39;;;-21.59;54.35
82512;BME280;72152;65.012;25.464;2024-01-06T15:34:07;102575.85;;;-21.59;53.90
82512;BME280;72152;65.012;25.464;2024-01-06T15:37:19;102568.55;;;-21.57;54.16
82512;BME280;72152;65.012;25.464;2024-01-06T15:40:28;102566.43;;;-21.56;54.37
82512;BME280;72152;65.012;25.464;2024-01-06T15:43:35;102569.70;;;-21.54;53.96
82512;BME280;72152;65.012;25.464;2024-01-06T15:46:39;102579.45;;;-21.59;54.23
82512;BME280;72152;65.012;25.464;2024-01-06T15:49:39;102576.35;;;-21.64;54.40
82512;BME280;72152;65.012;25.464;2024-01-06T15:52:43;102575.12;;;-21.63;54.17
82512;BME280;72152;65.012;25.464;2024-01-06T15:55:45;102566.66;;;-21.60;53.94
82512;BME280;72152;65.012;25.464;2024-01-06T15:58:58;102568.06;;;-21.56;54.12
82512;BME280;72152;65.012;25.464;2024-01-06T16:02:12;102566.88;;;-21.54;54.50
82512;BME280;72152;65.012;25.464;2024-01-06T16:05:21;102564.23;;;-21.53;54.34
82512;BME280;72152;65.012;25.464;2024-01-06T16:08:30;102565.28;;;-21.54;54.48